sensor_id;sensor_type;location;lat;lon;timestamp;P1;durP1;ratioP1;P2;durP2;ratioP2
11829;SDS011;5972;42.134;24.718;2022-11-18T00:01:09;125.40;;;27.35;;
11829;SDS011;5972;42.134;24.718;2022-11-18T00:03:37;162.02;;;28.13;;
11829;SDS011;5972;42.134;24.718;2022-11-18T00:06:04;158.82;;;29.85;;
11829;SDS011;5972;42.134;24.718;2022-11-18T00:08:32;211.85;;;29.65;;
11829;SDS011;5972;42.134;24.718;2022-11-18T00:11:03;155.63;;;26.65;;
11829;SDS011;5972;42.134;24.718;2022-11-18T00:13:31;152.45;;;28.02;;
11829;SDS011;5972;42.134;24.718;2022-11-18T00:16:17;260.70;;;29.92;;
11829;SDS011;5972;42.134;24.718;2022-11-18T00:18:44;192.15;;;27.30;;
11829;SDS011;5972;42.134;24.718;2022-11-18T00:21:10;122.30;;;27.73;;
11829;SDS011;5972;42.134;24.718;2022-11-18T00:23:38;149.75;;;27.92;;
11829;SDS011;5972;42.134;24.718;2022-11-18T00:26:05;167.77;;;28.33;;
11829;SDS011;5972;42.134;24.718;2022-11-18T00:28:34;200.18;;;30.65;;
11829;SDS011;5972;42.134;24.718;2022-11-18T00:31:01;231.45;;;33.85;;
11829;SDS011;5972;42.134;24.718;2022-11-18T00:33:30;165.93;;;29.63;;
11829;SDS011;5972;42.134;24.718;2022-11-18T00:35:57;129.98;;;27.08;;
11829;SDS011;5972;42.134;24.718;2022-11-18T00:38:26;102.15;;;24.70;;
11829;SDS011;5972;42.134;24.718;2022-11-18T00:40:57;120.00;;;25.20;;
11829;SDS011;5972;42.134;24.718;2022-11-18T00:43:25;153.75;;;26.13;;
11829;SDS011;5972;42.134;24.718;2022-11-18T00:45:51;129.57;;;24.00;;
11829;SDS011;5972;42.134;24.718;2022-11-18T00:48:18;149.43;;;26.33;;
11829;SDS011;5972;42.134;24.718;2022-11-18T00:50:47;105.40;;;24.58;;
11829;SDS011;5972;42.134;24.718;2022-11-18T00:53:14;99.88;;;24.65;;
11829;SDS011;5972;42.134;24.718;2022-11-18T00:55:41;129.60;;;24.83;;
11829;SDS011;5972;42.134;24.718;2022-11-18T00:58:08;73.20;;;22.38;;
11829;SDS011;5972;42.134;24.718;2022-11-18T01:00:49;146.05;;;23.20;;
11829;SDS011;5972;42.134;24.718;2022-11-18T01:03:17;149.35;;;24.77;;
11829;SDS011;5972;42.134;24.718;2022-11-18T01:05:44;170.02;;;23.88;;
11829;SDS011;5972;42.134;24.718;2022-11-18T01:08:13;173.25;;;23.45;;
11829;SDS011;5972;42.134;24.718;2022-11-18T01:10:41;72.25;;;21.38;;
11829;SDS011;5972;42.134;24.718;2022-11-18T01:13:10;148.00;;;22.38;;
11829;SDS011;5972;42.134;24.718;2022-11-18T01:15:44;162.35;;;21.90;;
11829;SDS011;5972;42.134;24.718;2022-11-18T01:18:12;160.48;;;22.58;;
11829;SDS011;5972;42.134;24.718;2022-11-18T01:20:39;195.63;;;22.40;;
11829;SDS011;5972;42.134;24.718;2022-11-18T01:23:06;124.43;;;22.38;;
11829;SDS011;5972;42.134;24.718;2022-11-18T01:25:35;80.43;;;21.85;;
11829;SDS011;5972;42.134;24.718;2022-11-18T01:28:02;104.18;;;22.75;;
11829;SDS011;5972;42.134;24.718;2022-11-18T01:30:31;135.35;;;24.05;;
11829;SDS011;5972;42.134;24.718;2022-11-18T01:32:58;155.70;;;22.98;;
11829;SDS011;5972;42.134;24.718;2022-11-18T01:35:25;129.05;;;22.48;;
11829;SDS011;5972;42.134;24.718;2022-11-18T01:37:52;187.98;;;23.50;;
11829;SDS011;5972;42.134;24.718;2022-11-18T01:40:19;167.32;;;23.67;;
11829;SDS011;5972;42.134;24.718;2022-11-18T01:42:47;78.90;;;21.50;;
11829;SDS011;5972;42.134;24.718;2022-11-18T01:45:18;128.80;;;21.80;;
11829;SDS011;5972;42.134;24.718;2022-11-18T01:47:53;137.77;;;22.05;;
11829;SDS011;5972;42.134;24.718;2022-11-18T01:50:25;150.70;;;22.60;;
11829;SDS011;5972;42.134;24.718;2022-11-18T01:52:55;139.82;;;23.02;;
11829;SDS011;5972;42.134;24.718;2022-11-18T01:55:26;115.90;;;22.30;;
11829;SDS011;5972;42.134;24.718;2022-11-18T01:58:01;97.25;;;20.10;;
11829;SDS011;5972;42.134;24.718;2022-11-18T02:00:32;123.93;;;21.83;;
11829;SDS011;5972;42.134;24.718;2022-11-18T02:03:00;247.00;;;25.13;;
11829;SDS011;5972;42.134;24.718;2022-11-18T02:05:28;171.67;;;24.10;;
11829;SDS011;5972;42.134;24.718;2022-11-18T02:07:57;176.37;;;23.47;;
11829;SDS011;5972;42.134;24.718;2022-11-18T02:10:26;231.23;;;26.40;;
11829;SDS011;5972;42.134;24.718;2022-11-18T02:12:53;157.30;;;21.30;;
11829;SDS011;5972;42.134;24.718;2022-11-18T02:15:25;133.67;;;21.03;;
11829;SDS011;5972;42.134;24.718;2022-11-18T02:18:03;108.75;;;20.30;;
11829;SDS011;5972;42.134;24.718;2022-11-18T02:20:36;169.00;;;23.02;;
11829;SDS011;5972;42.134;24.718;2022-11-18T02:29:40;157.50;;;20.03;;
11829;SDS011;5972;42.134;24.718;2022-11-18T02:35:05;185.70;;;22.25;;
11829;SDS011;5972;42.134;24.718;2022-11-18T02:37:42;231.20;;;21.67;;
11829;SDS011;5972;42.134;24.718;2022-11-18T02:40:14;195.67;;;22.27;;
11829;SDS011;5972;42.134;24.718;2022-11-18T02:42:46;158.93;;;20.50;;
11829;SDS011;5972;42.134;24.718;2022-11-18T02:45:18;191.83;;;24.70;;
11829;SDS011;5972;42.134;24.718;2022-11-18T02:47:50;167.20;;;24.87;;
11829;SDS011;5972;42.134;24.718;2022-11-18T02:50:19;192.10;;;23.10;;
11829;SDS011;5972;42.134;24.718;2022-11-18T02:52:52;73.60;;;20.50;;
11829;SDS011;5972;42.134;24.718;2022-11-18T02:55:22;137.73;;;23.73;;
11829;SDS011;5972;42.134;24.718;2022-11-18T02:57:52;108.00;;;22.33;;
11829;SDS011;5972;42.134;24.718;2022-11-18T03:00:21;134.07;;;21.23;;
11829;SDS011;5972;42.134;24.718;2022-11-18T03:02:48;147.33;;;22.30;;
11829;SDS011;5972;42.134;24.718;2022-11-18T03:05:16;55.13;;;21.37;;
11829;SDS011;5972;42.134;24.718;2022-11-18T03:07:49;117.77;;;23.53;;
11829;SDS011;5972;42.134;24.718;2022-11-18T03:10:19;133.80;;;22.63;;
11829;SDS011;5972;42.134;24.718;2022-11-18T03:12:51;191.63;;;23.27;;
11829;SDS011;5972;42.134;24.718;2022-11-18T03:15:24;151.67;;;22.40;;
11829;SDS011;5972;42.134;24.718;2022-11-18T03:18:00;386.53;;;26.93;;
11829;SDS011;5972;42.134;24.718;2022-11-18T03:20:40;238.33;;;25.60;;
11829;SDS011;5972;42.134;24.718;2022-11-18T03:23:13;125.13;;;22.30;;
11829;SDS011;5972;42.134;24.718;2022-11-18T03:25:47;133.60;;;23.10;;
11829;SDS011;5972;42.134;24.718;2022-11-18T03:28:21;150.30;;;22.80;;
11829;SDS011;5972;42.134;24.718;2022-11-18T03:30:55;83.90;;;21.77;;
11829;SDS011;5972;42.134;24.718;2022-11-18T03:33:28;103.73;;;20.53;;
11829;SDS011;5972;42.134;24.718;2022-11-18T03:36:00;100.40;;;20.93;;
11829;SDS011;5972;42.134;24.718;2022-11-18T03:38:32;81.30;;;21.40;;
11829;SDS011;5972;42.134;24.718;2022-11-18T03:41:03;86.00;;;20.53;;
11829;SDS011;5972;42.134;24.718;2022-11-18T03:43:37;116.57;;;22.87;;
11829;SDS011;5972;42.134;24.718;2022-11-18T03:46:09;113.83;;;21.97;;
11829;SDS011;5972;42.134;24.718;2022-11-18T03:48:41;126.77;;;21.30;;
11829;SDS011;5972;42.134;24.718;2022-11-18T03:51:13;155.50;;;21.17;;
11829;SDS011;5972;42.134;24.718;2022-11-18T03:53:44;158.60;;;24.63;;
11829;SDS011;5972;42.134;24.718;2022-11-18T03:56:19;150.50;;;23.33;;
11829;SDS011;5972;42.134;24.718;2022-11-18T03:58:52;241.93;;;28.10;;
11829;SDS011;5972;42.134;24.718;2022-11-18T04:01:23;255.63;;;27.47;;
11829;SDS011;5972;42.134;24.718;2022-11-18T04:04:01;284.07;;;27.37;;
11829;SDS011;5972;42.134;24.718;2022-11-18T04:06:29;190.83;;;26.57;;
11829;SDS011;5972;42.134;24.718;2022-11-18T04:09:02;243.10;;;28.47;;
11829;SDS011;5972;42.134;24.718;2022-11-18T04:11:35;246.70;;;27.57;;
11829;SDS011;5972;42.134;24.718;2022-11-18T04:14:24;354.67;;;28.97;;
11829;SDS011;5972;42.134;24.718;2022-11-18T04:17:11;236.03;;;27.43;;
11829;SDS011;5972;42.134;24.718;2022-11-18T04:19:39;342.13;;;31.77;;
11829;SDS011;5972;42.134;24.718;2022-11-18T04:22:07;258.02;;;27.17;;
11829;SDS011;5972;42.134;24.718;2022-11-18T04:24:34;226.48;;;27.40;;
11829;SDS011;5972;42.134;24.718;2022-11-18T04:27:02;187.35;;;24.80;;
11829;SDS011;5972;42.134;24.718;2022-11-18T04:29:30;139.80;;;23.65;;
11829;SDS011;5972;42.134;24.718;2022-11-18T04:31:57;300.20;;;28.47;;
11829;SDS011;5972;42.134;24.718;2022-11-18T04:34:25;309.52;;;26.05;;
11829;SDS011;5972;42.134;24.718;2022-11-18T04:36:52;209.05;;;25.38;;
11829;SDS011;5972;42.134;24.718;2022-11-18T04:39:19;148.67;;;23.13;;
11829;SDS011;5972;42.134;24.718;2022-11-18T04:41:47;97.35;;;22.48;;
11829;SDS011;5972;42.134;24.718;2022-11-18T04:44:24;74.20;;;21.98;;
11829;SDS011;5972;42.134;24.718;2022-11-18T04:46:52;112.87;;;24.13;;
11829;SDS011;5972;42.134;24.718;2022-11-18T04:49:19;102.67;;;22.47;;
11829;SDS011;5972;42.134;24.718;2022-11-18T04:51:48;100.60;;;22.85;;
11829;SDS011;5972;42.134;24.718;2022-11-18T04:54:15;111.83;;;22.67;;
11829;SDS011;5972;42.134;24.718;2022-11-18T04:56:43;116.60;;;22.93;;
11829;SDS011;5972;42.134;24.718;2022-11-18T04:59:10;79.43;;;22.27;;
11829;SDS011;5972;42.134;24.718;2022-11-18T05:01:38;130.70;;;25.97;;
11829;SDS011;5972;42.134;24.718;2022-11-18T05:04:05;199.53;;;29.30;;
11829;SDS011;5972;42.134;24.718;2022-11-18T05:09:02;97.97;;;25.73;;
11829;SDS011;5972;42.134;24.718;2022-11-18T05:11:28;94.13;;;24.50;;
11829;SDS011;5972;42.134;24.718;2022-11-18T05:14:13;43.47;;;22.57;;
11829;SDS011;5972;42.134;24.718;2022-11-18T05:16:40;99.03;;;23.03;;
11829;SDS011;5972;42.134;24.718;2022-11-18T05:19:07;96.13;;;23.13;;
11829;SDS011;5972;42.134;24.718;2022-11-18T05:21:34;80.23;;;23.93;;
11829;SDS011;5972;42.134;24.718;2022-11-18T05:26:36;101.03;;;24.77;;
11829;SDS011;5972;42.134;24.718;2022-11-18T05:29:03;76.03;;;23.73;;
11829;SDS011;5972;42.134;24.718;2022-11-18T05:31:29;51.33;;;23.67;;
11829;SDS011;5972;42.134;24.718;2022-11-18T05:33:56;53.10;;;25.17;;
11829;SDS011;5972;42.134;24.718;2022-11-18T05:36:23;62.25;;;23.45;;
11829;SDS011;5972;42.134;24.718;2022-11-18T05:38:50;84.13;;;23.70;;
11829;SDS011;5972;42.134;24.718;2022-11-18T05:41:18;72.00;;;23.73;;
11829;SDS011;5972;42.134;24.718;2022-11-18T05:44:02;76.90;;;23.77;;
11829;SDS011;5972;42.134;24.718;2022-11-18T05:46:30;114.65;;;25.25;;
11829;SDS011;5972;42.134;24.718;2022-11-18T05:48:57;75.10;;;23.77;;
11829;SDS011;5972;42.134;24.718;2022-11-18T05:51:24;98.15;;;24.48;;
11829;SDS011;5972;42.134;24.718;2022-11-18T05:53:51;97.87;;;23.90;;
11829;SDS011;5972;42.134;24.718;2022-11-18T05:56:22;87.88;;;27.33;;
11829;SDS011;5972;42.134;24.718;2022-11-18T05:58:53;93.07;;;26.98;;
11829;SDS011;5972;42.134;24.718;2022-11-18T06:01:20;76.83;;;25.57;;
11829;SDS011;5972;42.134;24.718;2022-11-18T06:03:51;56.70;;;25.17;;
11829;SDS011;5972;42.134;24.718;2022-11-18T06:06:18;66.93;;;25.73;;
11829;SDS011;5972;42.134;24.718;2022-11-18T06:08:47;103.57;;;27.67;;
11829;SDS011;5972;42.134;24.718;2022-11-18T06:11:19;60.57;;;25.43;;
11829;SDS011;5972;42.134;24.718;2022-11-18T06:13:50;73.00;;;24.48;;
11829;SDS011;5972;42.134;24.718;2022-11-18T06:16:23;89.03;;;25.02;;
11829;SDS011;5972;42.134;24.718;2022-11-18T06:18:53;78.25;;;23.65;;
11829;SDS011;5972;42.134;24.718;2022-11-18T06:21:20;81.82;;;24.35;;
11829;SDS011;5972;42.134;24.718;2022-11-18T06:23:47;146.25;;;24.92;;
11829;SDS011;5972;42.134;24.718;2022-11-18T06:26:15;107.85;;;23.90;;
11829;SDS011;5972;42.134;24.718;2022-11-18T06:28:44;141.60;;;25.55;;
11829;SDS011;5972;42.134;24.718;2022-11-18T06:31:12;147.70;;;26.67;;
11829;SDS011;5972;42.134;24.718;2022-11-18T06:33:40;108.43;;;27.67;;
11829;SDS011;5972;42.134;24.718;2022-11-18T06:36:07;128.50;;;27.20;;
11829;SDS011;5972;42.134;24.718;2022-11-18T06:38:34;210.77;;;30.17;;
11829;SDS011;5972;42.134;24.718;2022-11-18T06:41:01;302.67;;;33.47;;
11829;SDS011;5972;42.134;24.718;2022-11-18T06:43:28;263.73;;;35.33;;
11829;SDS011;5972;42.134;24.718;2022-11-18T06:46:09;213.30;;;33.70;;
11829;SDS011;5972;42.134;24.718;2022-11-18T06:48:54;153.00;;;29.17;;
11829;SDS011;5972;42.134;24.718;2022-11-18T06:51:22;163.23;;;31.37;;
11829;SDS011;5972;42.134;24.718;2022-11-18T06:53:49;136.70;;;29.40;;
11829;SDS011;5972;42.134;24.718;2022-11-18T06:56:16;149.50;;;32.53;;
11829;SDS011;5972;42.134;24.718;2022-11-18T06:58:44;118.07;;;33.07;;
11829;SDS011;5972;42.134;24.718;2022-11-18T07:01:14;172.83;;;31.70;;
11829;SDS011;5972;42.134;24.718;2022-11-18T07:03:42;151.13;;;30.13;;
11829;SDS011;5972;42.134;24.718;2022-11-18T07:06:11;130.43;;;29.67;;
11829;SDS011;5972;42.134;24.718;2022-11-18T07:08:39;165.27;;;29.30;;
11829;SDS011;5972;42.134;24.718;2022-11-18T07:11:07;122.73;;;26.37;;
11829;SDS011;5972;42.134;24.718;2022-11-18T07:13:36;65.30;;;25.70;;
11829;SDS011;5972;42.134;24.718;2022-11-18T07:16:03;63.92;;;24.63;;
11829;SDS011;5972;42.134;24.718;2022-11-18T07:18:32;117.60;;;25.75;;
11829;SDS011;5972;42.134;24.718;2022-11-18T07:21:01;89.15;;;25.20;;
11829;SDS011;5972;42.134;24.718;2022-11-18T07:23:29;46.22;;;23.90;;
11829;SDS011;5972;42.134;24.718;2022-11-18T07:25:56;110.22;;;25.33;;
11829;SDS011;5972;42.134;24.718;2022-11-18T07:28:23;66.38;;;23.67;;
11829;SDS011;5972;42.134;24.718;2022-11-18T07:30:50;88.85;;;24.58;;
11829;SDS011;5972;42.134;24.718;2022-11-18T07:33:16;60.92;;;23.77;;
11829;SDS011;5972;42.134;24.718;2022-11-18T07:35:45;58.72;;;22.30;;
11829;SDS011;5972;42.134;24.718;2022-11-18T07:38:11;55.10;;;20.77;;
11829;SDS011;5972;42.134;24.718;2022-11-18T07:40:38;43.80;;;20.30;;
11829;SDS011;5972;42.134;24.718;2022-11-18T07:43:05;53.95;;;19.52;;
11829;SDS011;5972;42.134;24.718;2022-11-18T07:45:32;47.63;;;20.55;;
11829;SDS011;5972;42.134;24.718;2022-11-18T07:47:59;57.88;;;22.20;;
11829;SDS011;5972;42.134;24.718;2022-11-18T07:50:26;51.13;;;22.88;;
11829;SDS011;5972;42.134;24.718;2022-11-18T07:52:55;46.97;;;23.42;;
11829;SDS011;5972;42.134;24.718;2022-11-18T07:55:22;37.03;;;22.15;;
11829;SDS011;5972;42.134;24.718;2022-11-18T07:57:49;69.88;;;23.35;;
11829;SDS011;5972;42.134;24.718;2022-11-18T08:00:16;40.45;;;20.60;;
11829;SDS011;5972;42.134;24.718;2022-11-18T08:02:43;51.17;;;19.95;;
11829;SDS011;5972;42.134;24.718;2022-11-18T08:05:10;46.80;;;21.50;;
11829;SDS011;5972;42.134;24.718;2022-11-18T08:07:37;64.00;;;21.27;;
11829;SDS011;5972;42.134;24.718;2022-11-18T08:10:06;88.80;;;22.02;;
11829;SDS011;5972;42.134;24.718;2022-11-18T08:12:33;93.05;;;23.83;;
11829;SDS011;5972;42.134;24.718;2022-11-18T08:15:00;37.90;;;21.95;;
11829;SDS011;5972;42.134;24.718;2022-11-18T08:17:27;45.70;;;24.75;;
11829;SDS011;5972;42.134;24.718;2022-11-18T08:19:55;48.80;;;23.77;;
11829;SDS011;5972;42.134;24.718;2022-11-18T08:22:22;56.30;;;26.08;;
11829;SDS011;5972;42.134;24.718;2022-11-18T08:24:49;49.05;;;25.08;;
11829;SDS011;5972;42.134;24.718;2022-11-18T08:27:17;40.35;;;23.98;;
11829;SDS011;5972;42.134;24.718;2022-11-18T08:29:44;43.08;;;25.60;;
11829;SDS011;5972;42.134;24.718;2022-11-18T08:32:11;54.95;;;27.30;;
11829;SDS011;5972;42.134;24.718;2022-11-18T08:34:37;46.17;;;25.85;;
11829;SDS011;5972;42.134;24.718;2022-11-18T08:37:04;57.83;;;27.13;;
11829;SDS011;5972;42.134;24.718;2022-11-18T08:39:31;53.17;;;25.73;;
11829;SDS011;5972;42.134;24.718;2022-11-18T08:41:58;46.20;;;26.13;;
11829;SDS011;5972;42.134;24.718;2022-11-18T08:44:26;48.95;;;25.38;;
11829;SDS011;5972;42.134;24.718;2022-11-18T08:46:52;38.90;;;25.02;;
11829;SDS011;5972;42.134;24.718;2022-11-18T08:49:19;54.15;;;23.25;;
11829;SDS011;5972;42.134;24.718;2022-11-18T08:51:46;51.40;;;25.75;;
11829;SDS011;5972;42.134;24.718;2022-11-18T08:54:13;57.72;;;24.92;;
11829;SDS011;5972;42.134;24.718;2022-11-18T08:56:40;60.60;;;24.73;;
11829;SDS011;5972;42.134;24.718;2022-11-18T08:59:07;65.50;;;24.65;;
11829;SDS011;5972;42.134;24.718;2022-11-18T09:01:35;37.88;;;23.48;;
11829;SDS011;5972;42.134;24.718;2022-11-18T09:04:02;38.17;;;24.40;;
11829;SDS011;5972;42.134;24.718;2022-11-18T09:06:29;46.67;;;22.88;;
11829;SDS011;5972;42.134;24.718;2022-11-18T09:08:56;55.00;;;23.42;;
11829;SDS011;5972;42.134;24.718;2022-11-18T09:11:23;48.58;;;25.63;;
11829;SDS011;5972;42.134;24.718;2022-11-18T09:13:52;47.08;;;25.50;;
11829;SDS011;5972;42.134;24.718;2022-11-18T09:16:20;56.20;;;27.73;;
11829;SDS011;5972;42.134;24.718;2022-11-18T09:18:49;67.57;;;28.83;;
11829;SDS011;5972;42.134;24.718;2022-11-18T09:21:16;49.70;;;28.90;;
11829;SDS011;5972;42.134;24.718;2022-11-18T09:23:44;57.00;;;31.00;;
11829;SDS011;5972;42.134;24.718;2022-11-18T09:26:11;52.38;;;32.03;;
11829;SDS011;5972;42.134;24.718;2022-11-18T09:28:40;59.78;;;32.58;;
11829;SDS011;5972;42.134;24.718;2022-11-18T09:31:08;58.42;;;35.17;;
11829;SDS011;5972;42.134;24.718;2022-11-18T09:33:36;63.92;;;34.47;;
11829;SDS011;5972;42.134;24.718;2022-11-18T09:36:09;55.95;;;33.60;;
11829;SDS011;5972;42.134;24.718;2022-11-18T09:38:37;56.78;;;32.85;;
11829;SDS011;5972;42.134;24.718;2022-11-18T09:41:06;59.55;;;33.55;;
11829;SDS011;5972;42.134;24.718;2022-11-18T09:43:49;56.75;;;32.95;;
11829;SDS011;5972;42.134;24.718;2022-11-18T09:46:28;58.67;;;31.98;;
11829;SDS011;5972;42.134;24.718;2022-11-18T09:49:01;65.57;;;33.95;;
11829;SDS011;5972;42.134;24.718;2022-11-18T09:51:41;67.28;;;34.35;;
11829;SDS011;5972;42.134;24.718;2022-11-18T09:54:11;73.57;;;37.10;;
11829;SDS011;5972;42.134;24.718;2022-11-18T09:56:46;77.38;;;38.30;;
11829;SDS011;5972;42.134;24.718;2022-11-18T09:59:14;72.30;;;38.90;;
11829;SDS011;5972;42.134;24.718;2022-11-18T10:01:43;70.68;;;38.47;;
11829;SDS011;5972;42.134;24.718;2022-11-18T10:04:13;70.53;;;36.80;;
11829;SDS011;5972;42.134;24.718;2022-11-18T10:06:43;71.15;;;38.50;;
11829;SDS011;5972;42.134;24.718;2022-11-18T10:09:14;71.15;;;38.10;;
11829;SDS011;5972;42.134;24.718;2022-11-18T10:11:55;65.05;;;37.53;;
11829;SDS011;5972;42.134;24.718;2022-11-18T10:14:38;63.25;;;36.55;;
11829;SDS011;5972;42.134;24.718;2022-11-18T10:17:30;62.00;;;37.78;;
11829;SDS011;5972;42.134;24.718;2022-11-18T10:20:23;66.03;;;38.90;;
11829;SDS011;5972;42.134;24.718;2022-11-18T10:23:01;69.57;;;39.03;;
11829;SDS011;5972;42.134;24.718;2022-11-18T10:25:30;77.63;;;44.60;;
11829;SDS011;5972;42.134;24.718;2022-11-18T10:27:57;65.78;;;38.33;;
11829;SDS011;5972;42.134;24.718;2022-11-18T10:30:39;64.20;;;37.13;;
11829;SDS011;5972;42.134;24.718;2022-11-18T10:33:16;60.15;;;37.90;;
11829;SDS011;5972;42.134;24.718;2022-11-18T10:35:51;63.40;;;37.95;;
11829;SDS011;5972;42.134;24.718;2022-11-18T10:38:36;55.83;;;34.92;;
11829;SDS011;5972;42.134;24.718;2022-11-18T10:41:04;60.70;;;36.17;;
11829;SDS011;5972;42.134;24.718;2022-11-18T10:43:41;58.00;;;34.05;;
11829;SDS011;5972;42.134;24.718;2022-11-18T10:46:14;63.55;;;36.33;;
11829;SDS011;5972;42.134;24.718;2022-11-18T10:48:57;65.88;;;35.28;;
11829;SDS011;5972;42.134;24.718;2022-11-18T10:51:38;60.30;;;35.35;;
11829;SDS011;5972;42.134;24.718;2022-11-18T10:54:08;65.18;;;39.00;;
11829;SDS011;5972;42.134;24.718;2022-11-18T10:56:44;65.65;;;37.38;;
11829;SDS011;5972;42.134;24.718;2022-11-18T10:59:16;62.42;;;37.78;;
11829;SDS011;5972;42.134;24.718;2022-11-18T11:01:56;79.90;;;40.50;;
11829;SDS011;5972;42.134;24.718;2022-11-18T11:04:27;79.47;;;42.63;;
11829;SDS011;5972;42.134;24.718;2022-11-18T11:06:55;75.68;;;41.30;;
11829;SDS011;5972;42.134;24.718;2022-11-18T11:09:29;80.15;;;43.78;;
11829;SDS011;5972;42.134;24.718;2022-11-18T11:11:59;97.53;;;48.42;;
11829;SDS011;5972;42.134;24.718;2022-11-18T11:14:30;102.28;;;47.67;;
11829;SDS011;5972;42.134;24.718;2022-11-18T11:17:05;96.30;;;46.13;;
11829;SDS011;5972;42.134;24.718;2022-11-18T11:19:42;95.82;;;47.58;;
11829;SDS011;5972;42.134;24.718;2022-11-18T11:22:15;102.75;;;49.08;;
11829;SDS011;5972;42.134;24.718;2022-11-18T11:24:43;100.18;;;48.70;;
11829;SDS011;5972;42.134;24.718;2022-11-18T11:30:17;102.50;;;48.75;;
11829;SDS011;5972;42.134;24.718;2022-11-18T11:35:50;85.90;;;42.67;;
11829;SDS011;5972;42.134;24.718;2022-11-18T11:38:32;105.00;;;47.70;;
11829;SDS011;5972;42.134;24.718;2022-11-18T11:41:11;103.40;;;48.63;;
11829;SDS011;5972;42.134;24.718;2022-11-18T11:43:51;92.30;;;46.53;;
11829;SDS011;5972;42.134;24.718;2022-11-18T11:46:32;90.15;;;47.88;;
11829;SDS011;5972;42.134;24.718;2022-11-18T11:49:09;95.13;;;48.08;;
11829;SDS011;5972;42.134;24.718;2022-11-18T11:51:44;95.57;;;48.63;;
11829;SDS011;5972;42.134;24.718;2022-11-18T11:57:12;87.40;;;46.13;;
11829;SDS011;5972;42.134;24.718;2022-11-18T11:59:48;90.95;;;45.10;;
11829;SDS011;5972;42.134;24.718;2022-11-18T12:02:28;81.97;;;44.65;;
11829;SDS011;5972;42.134;24.718;2022-11-18T12:05:06;80.47;;;44.83;;
11829;SDS011;5972;42.134;24.718;2022-11-18T12:07:44;76.40;;;42.17;;
11829;SDS011;5972;42.134;24.718;2022-11-18T12:10:21;84.32;;;43.88;;
11829;SDS011;5972;42.134;24.718;2022-11-18T12:12:57;81.13;;;42.30;;
11829;SDS011;5972;42.134;24.718;2022-11-18T12:15:38;70.75;;;42.03;;
11829;SDS011;5972;42.134;24.718;2022-11-18T12:18:14;73.68;;;42.00;;
11829;SDS011;5972;42.134;24.718;2022-11-18T12:20:47;79.55;;;44.58;;
11829;SDS011;5972;42.134;24.718;2022-11-18T12:23:16;73.53;;;43.13;;
11829;SDS011;5972;42.134;24.718;2022-11-18T12:25:51;69.85;;;40.85;;
11829;SDS011;5972;42.134;24.718;2022-11-18T12:28:25;67.97;;;40.00;;
11829;SDS011;5972;42.134;24.718;2022-11-18T12:34:00;67.32;;;41.97;;
11829;SDS011;5972;42.134;24.718;2022-11-18T12:36:30;70.50;;;42.35;;
11829;SDS011;5972;42.134;24.718;2022-11-18T12:38:58;61.35;;;40.28;;
11829;SDS011;5972;42.134;24.718;2022-11-18T12:41:51;66.60;;;41.78;;
11829;SDS011;5972;42.134;24.718;2022-11-18T12:44:38;77.47;;;41.75;;
11829;SDS011;5972;42.134;24.718;2022-11-18T12:47:05;66.57;;;41.05;;
11829;SDS011;5972;42.134;24.718;2022-11-18T12:52:49;68.80;;;42.50;;
11829;SDS011;5972;42.134;24.718;2022-11-18T12:55:20;62.03;;;39.58;;
11829;SDS011;5972;42.134;24.718;2022-11-18T12:58:19;69.00;;;41.33;;
11829;SDS011;5972;42.134;24.718;2022-11-18T13:00:50;70.13;;;42.83;;
11829;SDS011;5972;42.134;24.718;2022-11-18T13:03:30;70.68;;;42.85;;
11829;SDS011;5972;42.134;24.718;2022-11-18T13:05:59;71.22;;;43.65;;
11829;SDS011;5972;42.134;24.718;2022-11-18T13:08:29;74.20;;;44.08;;
11829;SDS011;5972;42.134;24.718;2022-11-18T13:10:56;79.53;;;42.63;;
11829;SDS011;5972;42.134;24.718;2022-11-18T13:13:50;77.30;;;42.67;;
11829;SDS011;5972;42.134;24.718;2022-11-18T13:16:40;69.95;;;42.17;;
11829;SDS011;5972;42.134;24.718;2022-11-18T13:19:26;70.05;;;42.50;;
11829;SDS011;5972;42.134;24.718;2022-11-18T13:21:53;67.15;;;43.22;;
11829;SDS011;5972;42.134;24.718;2022-11-18T13:24:51;75.90;;;44.03;;
11829;SDS011;5972;42.134;24.718;2022-11-18T13:27:21;79.95;;;45.90;;
11829;SDS011;5972;42.134;24.718;2022-11-18T13:30:00;82.70;;;43.88;;
11829;SDS011;5972;42.134;24.718;2022-11-18T13:32:30;85.72;;;46.38;;
11829;SDS011;5972;42.134;24.718;2022-11-18T13:34:58;90.65;;;48.42;;
11829;SDS011;5972;42.134;24.718;2022-11-18T13:37:35;81.20;;;46.10;;
11829;SDS011;5972;42.134;24.718;2022-11-18T13:40:16;83.80;;;45.28;;
11829;SDS011;5972;42.134;24.718;2022-11-18T13:42:44;81.13;;;46.03;;
11829;SDS011;5972;42.134;24.718;2022-11-18T13:45:11;79.93;;;46.33;;
11829;SDS011;5972;42.134;24.718;2022-11-18T13:47:40;88.25;;;45.40;;
11829;SDS011;5972;42.134;24.718;2022-11-18T13:50:13;80.40;;;44.25;;
11829;SDS011;5972;42.134;24.718;2022-11-18T13:52:46;85.85;;;44.50;;
11829;SDS011;5972;42.134;24.718;2022-11-18T13:55:18;84.07;;;44.55;;
11829;SDS011;5972;42.134;24.718;2022-11-18T13:57:47;75.03;;;44.20;;
11829;SDS011;5972;42.134;24.718;2022-11-18T14:00:20;82.15;;;45.22;;
11829;SDS011;5972;42.134;24.718;2022-11-18T14:02:56;93.10;;;46.58;;
11829;SDS011;5972;42.134;24.718;2022-11-18T14:05:27;101.43;;;46.75;;
11829;SDS011;5972;42.134;24.718;2022-11-18T14:07:55;93.15;;;45.58;;
11829;SDS011;5972;42.134;24.718;2022-11-18T14:10:29;105.80;;;49.08;;
11829;SDS011;5972;42.134;24.718;2022-11-18T14:13:11;105.32;;;49.67;;
11829;SDS011;5972;42.134;24.718;2022-11-18T14:15:43;109.88;;;50.83;;
11829;SDS011;5972;42.134;24.718;2022-11-18T14:18:16;116.10;;;50.60;;
11829;SDS011;5972;42.134;24.718;2022-11-18T14:20:48;123.40;;;49.75;;
11829;SDS011;5972;42.134;24.718;2022-11-18T14:23:25;119.10;;;49.92;;
11829;SDS011;5972;42.134;24.718;2022-11-18T14:25:54;131.80;;;51.80;;
11829;SDS011;5972;42.134;24.718;2022-11-18T14:28:22;120.10;;;52.78;;
11829;SDS011;5972;42.134;24.718;2022-11-18T14:30:55;118.35;;;50.58;;
11829;SDS011;5972;42.134;24.718;2022-11-18T14:33:26;131.23;;;49.72;;
11829;SDS011;5972;42.134;24.718;2022-11-18T14:35:54;119.47;;;49.10;;
11829;SDS011;5972;42.134;24.718;2022-11-18T14:38:24;118.25;;;47.80;;
11829;SDS011;5972;42.134;24.718;2022-11-18T14:40:56;114.00;;;48.40;;
11829;SDS011;5972;42.134;24.718;2022-11-18T14:43:24;113.05;;;48.03;;
11829;SDS011;5972;42.134;24.718;2022-11-18T14:45:51;119.32;;;47.22;;
11829;SDS011;5972;42.134;24.718;2022-11-18T14:48:20;110.15;;;45.83;;
11829;SDS011;5972;42.134;24.718;2022-11-18T14:50:49;105.97;;;47.75;;
11829;SDS011;5972;42.134;24.718;2022-11-18T14:53:16;104.15;;;47.65;;
11829;SDS011;5972;42.134;24.718;2022-11-18T14:55:44;94.07;;;45.72;;
11829;SDS011;5972;42.134;24.718;2022-11-18T14:58:13;92.68;;;43.92;;
11829;SDS011;5972;42.134;24.718;2022-11-18T15:00:40;94.55;;;43.55;;
11829;SDS011;5972;42.134;24.718;2022-11-18T15:03:08;91.03;;;42.33;;
11829;SDS011;5972;42.134;24.718;2022-11-18T15:05:35;95.57;;;42.95;;
11829;SDS011;5972;42.134;24.718;2022-11-18T15:08:04;88.40;;;41.47;;